sensor_id;sensor_type;location;lat;lon;timestamp;P1;durP1;ratioP1;P2;durP2;ratioP2
50731;SDS011;36700;50.488;2.544;2023-08-07T00:00:24;4.53;;;1.60;;
50731;SDS011;36700;50.488;2.544;2023-08-07T00:02:50;3.17;;;1.58;;
50731;SDS011;36700;50.488;2.544;2023-08-07T00:05:16;3.80;;;1.45;;
50731;SDS011;36700;50.488;2.544;2023-08-07T00:07:42;2.45;;;1.30;;
50731;SDS011;36700;50.488;2.544;2023-08-07T00:10:09;4.00;;;1.70;;
50731;SDS011;36700;50.488;2.544;2023-08-07T00:12:35;4.05;;;1.60;;
50731;SDS011;36700;50.488;2.544;2023-08-07T00:15:02;3.28;;;1.70;;
50731;SDS011;36700;50.488;2.544;2023-08-07T00:17:29;3.42;;;1.50;;
50731;SDS011;36700;50.488;2.544;2023-08-07T00:19:55;3.00;;;1.50;;
50731;SDS011;36700;50.488;2.544;2023-08-07T00:22:21;2.38;;;1.50;;
50731;SDS011;36700;50.488;2.544;2023-08-07T00:24:47;2.50;;;1.50;;
50731;SDS011;36700;50.488;2.544;2023-08-07T00:27:13;3.83;;;1.55;;
50731;SDS011;36700;50.488;2.544;2023-08-07T00:29:40;2.88;;;1.63;;
50731;SDS011;36700;50.488;2.544;2023-08-07T00:32:06;2.60;;;1.50;;
50731;SDS011;36700;50.488;2.544;2023-08-07T00:34:32;2.67;;;1.50;;
50731;SDS011;36700;50.488;2.544;2023-08-07T00:36:58;2.92;;;1.70;;
50731;SDS011;36700;50.488;2.544;2023-08-07T00:39:24;3.33;;;1.50;;
50731;SDS011;36700;50.488;2.544;2023-08-07T00:41:50;4.10;;;1.58;;
50731;SDS011;36700;50.488;2.544;2023-08-07T00:44:16;3.67;;;1.55;;
50731;SDS011;36700;50.488;2.544;2023-08-07T00:46:42;2.20;;;1.40;;
50731;SDS011;36700;50.488;2.544;2023-08-07T00:49:09;5.15;;;1.70;;
50731;SDS011;36700;50.488;2.544;2023-08-07T00:51:37;2.22;;;1.42;;
50731;SDS011;36700;50.488;2.544;2023-08-07T00:54:06;3.08;;;1.45;;
50731;SDS011;36700;50.488;2.544;2023-08-07T00:56:35;3.20;;;1.63;;
50731;SDS011;36700;50.488;2.544;2023-08-07T00:59:01;3.53;;;1.58;;
50731;SDS011;36700;50.488;2.544;2023-08-07T01:01:27;2.65;;;1.50;;
50731;SDS011;36700;50.488;2.544;2023-08-07T01:03:54;2.17;;;1.45;;
50731;SDS011;36700;50.488;2.544;2023-08-07T01:06:20;2.97;;;1.63;;
50731;SDS011;36700;50.488;2.544;2023-08-07T01:08:46;3.83;;;1.48;;
50731;SDS011;36700;50.488;2.544;2023-08-07T01:11:21;4.20;;;1.70;;
50731;SDS011;36700;50.488;2.544;2023-08-07T01:14:10;3.30;;;1.70;;
50731;SDS011;36700;50.488;2.544;2023-08-07T01:16:44;4.75;;;1.63;;
50731;SDS011;36700;50.488;2.544;2023-08-07T01:19:24;2.83;;;1.60;;
50731;SDS011;36700;50.488;2.544;2023-08-07T01:22:07;3.22;;;1.60;;
50731;SDS011;36700;50.488;2.544;2023-08-07T01:24:37;3.35;;;1.67;;
50731;SDS011;36700;50.488;2.544;2023-08-07T01:35:27;3.28;;;1.70;;
50731;SDS011;36700;50.488;2.544;2023-08-07T01:37:56;3.58;;;1.70;;
50731;SDS011;36700;50.488;2.544;2023-08-07T01:40:22;4.47;;;1.67;;
50731;SDS011;36700;50.488;2.544;2023-08-07T01:42:49;3.17;;;1.55;;
50731;SDS011;36700;50.488;2.544;2023-08-07T01:45:21;2.67;;;1.58;;
50731;SDS011;36700;50.488;2.544;2023-08-07T01:47:48;2.90;;;1.60;;
50731;SDS011;36700;50.488;2.544;2023-08-07T01:50:14;3.88;;;1.80;;
50731;SDS011;36700;50.488;2.544;2023-08-07T01:52:40;2.72;;;1.70;;
50731;SDS011;36700;50.488;2.544;2023-08-07T01:55:06;2.92;;;1.55;;
50731;SDS011;36700;50.488;2.544;2023-08-07T01:57:32;2.30;;;1.40;;
50731;SDS011;36700;50.488;2.544;2023-08-07T01:59:58;3.00;;;1.45;;
50731;SDS011;36700;50.488;2.544;2023-08-07T02:02:24;3.42;;;1.83;;
50731;SDS011;36700;50.488;2.544;2023-08-07T02:04:50;2.70;;;1.52;;
50731;SDS011;36700;50.488;2.544;2023-08-07T02:07:16;3.13;;;1.70;;
50731;SDS011;36700;50.488;2.544;2023-08-07T02:09:42;2.80;;;1.55;;
50731;SDS011;36700;50.488;2.544;2023-08-07T02:12:08;2.67;;;1.70;;
50731;SDS011;36700;50.488;2.544;2023-08-07T02:14:34;3.50;;;2.03;;
50731;SDS011;36700;50.488;2.544;2023-08-07T02:16:59;3.40;;;1.63;;
50731;SDS011;36700;50.488;2.544;2023-08-07T02:19:25;2.25;;;1.50;;
50731;SDS011;36700;50.488;2.544;2023-08-07T02:21:51;2.05;;;1.58;;
50731;SDS011;36700;50.488;2.544;2023-08-07T02:24:17;4.80;;;1.60;;
50731;SDS011;36700;50.488;2.544;2023-08-07T02:26:45;2.90;;;1.67;;
50731;SDS011;36700;50.488;2.544;2023-08-07T02:29:11;2.42;;;1.38;;
50731;SDS011;36700;50.488;2.544;2023-08-07T02:31:37;2.50;;;1.50;;
50731;SDS011;36700;50.488;2.544;2023-08-07T02:34:02;3.83;;;1.60;;
50731;SDS011;36700;50.488;2.544;2023-08-07T02:36:28;2.45;;;1.60;;
50731;SDS011;36700;50.488;2.544;2023-08-07T02:38:54;2.55;;;1.63;;
50731;SDS011;36700;50.488;2.544;2023-08-07T02:41:20;3.90;;;1.45;;
50731;SDS011;36700;50.488;2.544;2023-08-07T02:43:46;3.45;;;1.60;;
50731;SDS011;36700;50.488;2.544;2023-08-07T02:46:12;3.33;;;1.70;;
50731;SDS011;36700;50.488;2.544;2023-08-07T02:48:38;3.53;;;1.55;;
50731;SDS011;36700;50.488;2.544;2023-08-07T02:51:05;3.47;;;1.60;;
50731;SDS011;36700;50.488;2.544;2023-08-07T02:53:31;2.50;;;1.50;;
50731;SDS011;36700;50.488;2.544;2023-08-07T02:55:57;2.78;;;1.55;;
50731;SDS011;36700;50.488;2.544;2023-08-07T02:58:23;4.10;;;1.88;;
50731;SDS011;36700;50.488;2.544;2023-08-07T03:00:49;2.20;;;1.52;;
50731;SDS011;36700;50.488;2.544;2023-08-07T03:03:15;3.45;;;1.80;;
50731;SDS011;36700;50.488;2.544;2023-08-07T03:05:50;2.63;;;1.60;;
50731;SDS011;36700;50.488;2.544;2023-08-07T03:08:17;3.55;;;1.80;;
50731;SDS011;36700;50.488;2.544;2023-08-07T03:10:53;3.50;;;1.75;;
50731;SDS011;36700;50.488;2.544;2023-08-07T03:13:21;2.42;;;1.63;;
50731;SDS011;36700;50.488;2.544;2023-08-07T03:15:48;2.35;;;1.48;;
50731;SDS011;36700;50.488;2.544;2023-08-07T03:18:18;3.78;;;1.73;;
50731;SDS011;36700;50.488;2.544;2023-08-07T03:20:44;2.97;;;1.50;;
50731;SDS011;36700;50.488;2.544;2023-08-07T03:23:10;2.80;;;1.60;;
50731;SDS011;36700;50.488;2.544;2023-08-07T03:25:36;2.88;;;1.50;;
50731;SDS011;36700;50.488;2.544;2023-08-07T03:28:02;3.78;;;1.75;;
50731;SDS011;36700;50.488;2.544;2023-08-07T03:30:28;2.60;;;1.60;;
50731;SDS011;36700;50.488;2.544;2023-08-07T03:32:54;3.50;;;1.50;;
50731;SDS011;36700;50.488;2.544;2023-08-07T03:35:20;3.95;;;1.83;;
50731;SDS011;36700;50.488;2.544;2023-08-07T03:37:46;2.90;;;1.77;;
50731;SDS011;36700;50.488;2.544;2023-08-07T03:40:12;2.72;;;1.55;;
50731;SDS011;36700;50.488;2.544;2023-08-07T03:42:38;3.72;;;1.60;;
50731;SDS011;36700;50.488;2.544;2023-08-07T03:45:04;2.78;;;1.70;;
50731;SDS011;36700;50.488;2.544;2023-08-07T03:47:30;2.10;;;1.48;;
50731;SDS011;36700;50.488;2.544;2023-08-07T03:49:56;2.03;;;1.38;;
50731;SDS011;36700;50.488;2.544;2023-08-07T03:52:22;2.78;;;1.67;;
50731;SDS011;36700;50.488;2.544;2023-08-07T03:54:48;3.15;;;1.70;;
50731;SDS011;36700;50.488;2.544;2023-08-07T03:57:14;2.28;;;1.42;;
50731;SDS011;36700;50.488;2.544;2023-08-07T03:59:40;4.35;;;1.95;;
50731;SDS011;36700;50.488;2.544;2023-08-07T04:02:06;2.55;;;1.60;;
50731;SDS011;36700;50.488;2.544;2023-08-07T04:04:31;3.20;;;1.70;;
50731;SDS011;36700;50.488;2.544;2023-08-07T04:06:57;3.25;;;1.67;;
50731;SDS011;36700;50.488;2.544;2023-08-07T04:09:23;2.55;;;1.40;;
50731;SDS011;36700;50.488;2.544;2023-08-07T04:11:49;3.30;;;1.70;;
50731;SDS011;36700;50.488;2.544;2023-08-07T04:14:15;3.08;;;1.73;;
50731;SDS011;36700;50.488;2.544;2023-08-07T04:16:41;3.47;;;1.75;;
50731;SDS011;36700;50.488;2.544;2023-08-07T04:19:07;3.70;;;1.70;;
50731;SDS011;36700;50.488;2.544;2023-08-07T04:21:33;4.72;;;1.77;;
50731;SDS011;36700;50.488;2.544;2023-08-07T04:23:59;2.65;;;1.65;;
50731;SDS011;36700;50.488;2.544;2023-08-07T04:26:33;2.85;;;1.70;;
50731;SDS011;36700;50.488;2.544;2023-08-07T04:28:59;3.17;;;1.70;;
50731;SDS011;36700;50.488;2.544;2023-08-07T04:31:25;2.83;;;1.60;;
50731;SDS011;36700;50.488;2.544;2023-08-07T04:33:54;3.65;;;1.65;;
50731;SDS011;36700;50.488;2.544;2023-08-07T04:36:20;2.80;;;1.60;;
50731;SDS011;36700;50.488;2.544;2023-08-07T04:38:46;3.03;;;1.60;;
50731;SDS011;36700;50.488;2.544;2023-08-07T04:41:12;3.47;;;1.70;;
50731;SDS011;36700;50.488;2.544;2023-08-07T04:43:39;3.42;;;1.65;;
50731;SDS011;36700;50.488;2.544;2023-08-07T04:46:04;2.42;;;1.60;;
50731;SDS011;36700;50.488;2.544;2023-08-07T04:48:30;3.05;;;1.73;;
50731;SDS011;36700;50.488;2.544;2023-08-07T04:50:56;3.67;;;1.70;;
50731;SDS011;36700;50.488;2.544;2023-08-07T04:53:23;2.35;;;1.70;;
50731;SDS011;36700;50.488;2.544;2023-08-07T04:55:50;2.40;;;1.58;;
50731;SDS011;36700;50.488;2.544;2023-08-07T04:58:16;3.13;;;1.70;;
50731;SDS011;36700;50.488;2.544;2023-08-07T05:00:42;3.17;;;1.77;;
50731;SDS011;36700;50.488;2.544;2023-08-07T05:03:08;3.25;;;1.80;;
50731;SDS011;36700;50.488;2.544;2023-08-07T05:05:34;3.03;;;1.70;;
50731;SDS011;36700;50.488;2.544;2023-08-07T05:08:00;2.47;;;1.65;;
50731;SDS011;36700;50.488;2.544;2023-08-07T05:10:26;3.10;;;1.65;;
50731;SDS011;36700;50.488;2.544;2023-08-07T05:12:52;2.55;;;1.67;;
50731;SDS011;36700;50.488;2.544;2023-08-07T05:15:22;3.60;;;1.70;;
50731;SDS011;36700;50.488;2.544;2023-08-07T05:17:49;2.63;;;1.70;;
50731;SDS011;36700;50.488;2.544;2023-08-07T05:20:16;4.07;;;1.60;;
50731;SDS011;36700;50.488;2.544;2023-08-07T05:22:42;2.53;;;1.70;;
50731;SDS011;36700;50.488;2.544;2023-08-07T05:25:09;4.28;;;1.70;;
50731;SDS011;36700;50.488;2.544;2023-08-07T05:27:37;3.08;;;1.70;;
50731;SDS011;36700;50.488;2.544;2023-08-07T05:30:03;4.03;;;1.70;;
50731;SDS011;36700;50.488;2.544;2023-08-07T05:32:29;3.63;;;2.03;;
50731;SDS011;36700;50.488;2.544;2023-08-07T05:34:55;2.40;;;1.50;;
50731;SDS011;36700;50.488;2.544;2023-08-07T05:37:21;2.92;;;1.70;;
50731;SDS011;36700;50.488;2.544;2023-08-07T05:39:47;2.92;;;1.55;;
50731;SDS011;36700;50.488;2.544;2023-08-07T05:42:14;3.35;;;1.70;;
50731;SDS011;36700;50.488;2.544;2023-08-07T05:44:40;2.70;;;1.58;;
50731;SDS011;36700;50.488;2.544;2023-08-07T05:47:06;3.28;;;1.80;;
50731;SDS011;36700;50.488;2.544;2023-08-07T05:49:32;3.53;;;1.70;;
50731;SDS011;36700;50.488;2.544;2023-08-07T05:51:58;4.30;;;1.60;;
50731;SDS011;36700;50.488;2.544;2023-08-07T05:54:24;3.65;;;1.88;;
50731;SDS011;36700;50.488;2.544;2023-08-07T05:56:50;2.83;;;1.65;;
50731;SDS011;36700;50.488;2.544;2023-08-07T05:59:16;2.45;;;1.60;;
50731;SDS011;36700;50.488;2.544;2023-08-07T06:01:41;3.85;;;1.65;;
50731;SDS011;36700;50.488;2.544;2023-08-07T06:04:07;3.60;;;1.80;;
50731;SDS011;36700;50.488;2.544;2023-08-07T06:06:34;2.60;;;1.50;;
50731;SDS011;36700;50.488;2.544;2023-08-07T06:09:02;1.90;;;1.30;;
50731;SDS011;36700;50.488;2.544;2023-08-07T06:11:29;2.13;;;1.52;;
50731;SDS011;36700;50.488;2.544;2023-08-07T06:13:55;3.25;;;1.70;;
50731;SDS011;36700;50.488;2.544;2023-08-07T06:16:21;4.60;;;1.90;;
50731;SDS011;36700;50.488;2.544;2023-08-07T06:18:47;4.13;;;1.63;;
50731;SDS011;36700;50.488;2.544;2023-08-07T06:21:12;2.85;;;1.60;;
50731;SDS011;36700;50.488;2.544;2023-08-07T06:23:38;3.75;;;1.90;;
50731;SDS011;36700;50.488;2.544;2023-08-07T06:26:04;2.50;;;1.67;;
50731;SDS011;36700;50.488;2.544;2023-08-07T06:28:32;4.78;;;1.75;;
50731;SDS011;36700;50.488;2.544;2023-08-07T06:31:05;3.80;;;1.80;;
50731;SDS011;36700;50.488;2.544;2023-08-07T06:33:33;3.28;;;1.65;;
50731;SDS011;36700;50.488;2.544;2023-08-07T06:35:59;3.58;;;1.80;;
50731;SDS011;36700;50.488;2.544;2023-08-07T06:38:26;3.00;;;1.63;;
50731;SDS011;36700;50.488;2.544;2023-08-07T06:40:52;2.95;;;1.50;;
50731;SDS011;36700;50.488;2.544;2023-08-07T06:43:18;4.30;;;1.90;;
50731;SDS011;36700;50.488;2.544;2023-08-07T06:45:48;2.17;;;1.50;;
50731;SDS011;36700;50.488;2.544;2023-08-07T06:48:15;2.70;;;1.55;;
50731;SDS011;36700;50.488;2.544;2023-08-07T06:50:41;3.15;;;1.77;;
50731;SDS011;36700;50.488;2.544;2023-08-07T06:53:07;4.13;;;1.50;;
50731;SDS011;36700;50.488;2.544;2023-08-07T06:55:33;3.45;;;1.80;;
50731;SDS011;36700;50.488;2.544;2023-08-07T06:57:59;3.67;;;1.60;;
50731;SDS011;36700;50.488;2.544;2023-08-07T07:00:25;3.30;;;1.75;;
50731;SDS011;36700;50.488;2.544;2023-08-07T07:02:51;3.00;;;1.70;;
50731;SDS011;36700;50.488;2.544;2023-08-07T07:05:17;5.57;;;1.60;;
50731;SDS011;36700;50.488;2.544;2023-08-07T07:07:43;3.60;;;1.45;;
50731;SDS011;36700;50.488;2.544;2023-08-07T07:10:09;4.05;;;1.65;;
50731;SDS011;36700;50.488;2.544;2023-08-07T07:12:35;3.47;;;1.65;;
50731;SDS011;36700;50.488;2.544;2023-08-07T07:15:01;2.67;;;1.40;;
50731;SDS011;36700;50.488;2.544;2023-08-07T07:17:27;3.22;;;1.70;;
50731;SDS011;36700;50.488;2.544;2023-08-07T07:19:53;2.78;;;1.60;;
50731;SDS011;36700;50.488;2.544;2023-08-07T07:22:19;2.13;;;1.40;;
50731;SDS011;36700;50.488;2.544;2023-08-07T07:24:45;3.08;;;1.63;;
50731;SDS011;36700;50.488;2.544;2023-08-07T07:27:11;5.10;;;1.92;;
50731;SDS011;36700;50.488;2.544;2023-08-07T07:29:37;2.67;;;1.45;;
50731;SDS011;36700;50.488;2.544;2023-08-07T07:32:03;2.88;;;1.70;;
50731;SDS011;36700;50.488;2.544;2023-08-07T07:34:29;1.92;;;1.40;;
50731;SDS011;36700;50.488;2.544;2023-08-07T07:36:55;3.00;;;1.65;;
50731;SDS011;36700;50.488;2.544;2023-08-07T07:39:21;2.92;;;1.52;;
50731;SDS011;36700;50.488;2.544;2023-08-07T07:41:47;3.03;;;1.52;;
50731;SDS011;36700;50.488;2.544;2023-08-07T07:44:13;4.10;;;1.75;;
50731;SDS011;36700;50.488;2.544;2023-08-07T07:46:39;3.40;;;1.70;;
50731;SDS011;36700;50.488;2.544;2023-08-07T07:49:05;2.72;;;1.48;;
50731;SDS011;36700;50.488;2.544;2023-08-07T07:51:31;2.28;;;1.25;;
50731;SDS011;36700;50.488;2.544;2023-08-07T07:53:57;3.42;;;1.58;;
50731;SDS011;36700;50.488;2.544;2023-08-07T07:56:24;2.67;;;1.38;;
50731;SDS011;36700;50.488;2.544;2023-08-07T07:58:50;3.15;;;1.50;;
50731;SDS011;36700;50.488;2.544;2023-08-07T08:01:16;2.33;;;1.50;;
50731;SDS011;36700;50.488;2.544;2023-08-07T08:03:43;2.95;;;1.40;;
50731;SDS011;36700;50.488;2.544;2023-08-07T08:06:12;3.75;;;1.40;;
50731;SDS011;36700;50.488;2.544;2023-08-07T08:08:39;2.40;;;1.30;;
50731;SDS011;36700;50.488;2.544;2023-08-07T08:11:05;3.05;;;1.65;;
50731;SDS011;36700;50.488;2.544;2023-08-07T08:13:31;2.58;;;1.35;;
50731;SDS011;36700;50.488;2.544;2023-08-07T08:15:57;2.60;;;1.48;;
50731;SDS011;36700;50.488;2.544;2023-08-07T08:18:23;2.78;;;1.60;;
50731;SDS011;36700;50.488;2.544;2023-08-07T08:20:49;2.92;;;1.60;;
50731;SDS011;36700;50.488;2.544;2023-08-07T08:23:14;2.33;;;1.40;;
50731;SDS011;36700;50.488;2.544;2023-08-07T08:25:40;3.20;;;1.60;;
50731;SDS011;36700;50.488;2.544;2023-08-07T08:28:06;2.15;;;1.45;;
50731;SDS011;36700;50.488;2.544;2023-08-07T08:30:32;2.53;;;1.50;;
50731;SDS011;36700;50.488;2.544;2023-08-07T08:32:58;2.33;;;1.40;;
50731;SDS011;36700;50.488;2.544;2023-08-07T08:35:24;2.05;;;1.33;;
50731;SDS011;36700;50.488;2.544;2023-08-07T08:37:51;3.90;;;1.65;;
50731;SDS011;36700;50.488;2.544;2023-08-07T08:40:17;2.22;;;1.50;;
50731;SDS011;36700;50.488;2.544;2023-08-07T08:42:45;2.60;;;1.40;;
50731;SDS011;36700;50.488;2.544;2023-08-07T08:45:14;3.72;;;1.40;;
50731;SDS011;36700;50.488;2.544;2023-08-07T08:47:41;2.72;;;1.60;;
50731;SDS011;36700;50.488;2.544;2023-08-07T08:50:09;4.05;;;1.50;;
50731;SDS011;36700;50.488;2.544;2023-08-07T08:52:41;3.08;;;1.42;;
50731;SDS011;36700;50.488;2.544;2023-08-07T08:55:08;3.67;;;1.38;;
50731;SDS011;36700;50.488;2.544;2023-08-07T08:57:35;2.55;;;1.65;;
50731;SDS011;36700;50.488;2.544;2023-08-07T09:00:03;3.22;;;1.58;;
50731;SDS011;36700;50.488;2.544;2023-08-07T09:02:47;2.72;;;1.40;;
50731;SDS011;36700;50.488;2.544;2023-08-07T09:05:14;2.72;;;1.50;;
50731;SDS011;36700;50.488;2.544;2023-08-07T09:07:42;3.63;;;1.50;;
50731;SDS011;36700;50.488;2.544;2023-08-07T09:10:09;2.60;;;1.42;;
50731;SDS011;36700;50.488;2.544;2023-08-07T09:12:38;4.28;;;1.40;;
50731;SDS011;36700;50.488;2.544;2023-08-07T09:15:06;2.58;;;1.38;;
50731;SDS011;36700;50.488;2.544;2023-08-07T09:17:35;3.58;;;1.38;;
50731;SDS011;36700;50.488;2.544;2023-08-07T09:20:07;2.22;;;1.30;;
50731;SDS011;36700;50.488;2.544;2023-08-07T09:22:38;3.33;;;1.70;;
50731;SDS011;36700;50.488;2.544;2023-08-07T09:25:05;2.42;;;1.30;;
50731;SDS011;36700;50.488;2.544;2023-08-07T09:27:31;2.38;;;1.60;;
50731;SDS011;36700;50.488;2.544;2023-08-07T09:29:57;3.08;;;1.40;;
50731;SDS011;36700;50.488;2.544;2023-08-07T09:32:24;3.05;;;1.50;;
50731;SDS011;36700;50.488;2.544;2023-08-07T09:34:50;2.47;;;1.42;;
50731;SDS011;36700;50.488;2.544;2023-08-07T09:37:17;2.38;;;1.35;;
50731;SDS011;36700;50.488;2.544;2023-08-07T09:39:43;4.03;;;1.60;;
50731;SDS011;36700;50.488;2.544;2023-08-07T09:42:15;2.33;;;1.20;;
50731;SDS011;36700;50.488;2.544;2023-08-07T09:44:42;3.10;;;1.40;;
50731;SDS011;36700;50.488;2.544;2023-08-07T09:47:16;2.50;;;1.23;;
50731;SDS011;36700;50.488;2.544;2023-08-07T09:49:44;3.22;;;1.52;;
50731;SDS011;36700;50.488;2.544;2023-08-07T09:52:12;2.08;;;1.27;;
50731;SDS011;36700;50.488;2.544;2023-08-07T09:54:40;2.33;;;1.38;;
50731;SDS011;36700;50.488;2.544;2023-08-07T09:57:06;2.92;;;1.23;;
50731;SDS011;36700;50.488;2.544;2023-08-07T09:59:32;2.05;;;1.20;;
50731;SDS011;36700;50.488;2.544;2023-08-07T10:02:02;2.38;;;1.30;;
50731;SDS011;36700;50.488;2.544;2023-08-07T10:04:29;2.53;;;1.33;;
50731;SDS011;36700;50.488;2.544;2023-08-07T10:06:56;3.50;;;1.50;;
50731;SDS011;36700;50.488;2.544;2023-08-07T10:09:23;2.30;;;1.40;;
50731;SDS011;36700;50.488;2.544;2023-08-07T10:11:49;1.95;;;1.17;;
50731;SDS011;36700;50.488;2.544;2023-08-07T10:14:16;2.42;;;1.40;;
50731;SDS011;36700;50.488;2.544;2023-08-07T10:16:42;3.30;;;1.30;;
50731;SDS011;36700;50.488;2.544;2023-08-07T10:19:08;2.63;;;1.40;;
50731;SDS011;36700;50.488;2.544;2023-08-07T10:21:35;2.53;;;1.20;;
50731;SDS011;36700;50.488;2.544;2023-08-07T10:24:03;2.42;;;1.33;;
50731;SDS011;36700;50.488;2.544;2023-08-07T10:26:30;2.08;;;1.30;;
50731;SDS011;36700;50.488;2.544;2023-08-07T10:28:59;2.65;;;1.10;;
50731;SDS011;36700;50.488;2.544;2023-08-07T10:31:27;2.10;;;1.30;;
50731;SDS011;36700;50.488;2.544;2023-08-07T10:33:55;3.78;;;1.40;;
50731;SDS011;36700;50.488;2.544;2023-08-07T10:36:21;2.53;;;1.30;;
50731;SDS011;36700;50.488;2.544;2023-08-07T10:38:50;1.90;;;1.30;;
50731;SDS011;36700;50.488;2.544;2023-08-07T10:41:19;2.00;;;1.20;;
50731;SDS011;36700;50.488;2.544;2023-08-07T10:43:45;1.88;;;1.13;;
50731;SDS011;36700;50.488;2.544;2023-08-07T10:46:18;2.42;;;1.20;;
50731;SDS011;36700;50.488;2.544;2023-08-07T10:48:47;3.50;;;1.70;;
50731;SDS011;36700;50.488;2.544;2023-08-07T10:51:19;2.40;;;1.20;;
50731;SDS011;36700;50.488;2.544;2023-08-07T10:53:47;2.35;;;1.40;;
50731;SDS011;36700;50.488;2.544;2023-08-07T10:56:30;2.45;;;1.30;;
50731;SDS011;36700;50.488;2.544;2023-08-07T10:58:57;1.73;;;1.30;;
50731;SDS011;36700;50.488;2.544;2023-08-07T11:04:07;2.85;;;1.20;;
50731;SDS011;36700;50.488;2.544;2023-08-07T11:06:40;2.15;;;1.15;;
50731;SDS011;36700;50.488;2.544;2023-08-07T11:09:08;2.95;;;1.40;;
50731;SDS011;36700;50.488;2.544;2023-08-07T11:11:42;3.45;;;1.70;;
50731;SDS011;36700;50.488;2.544;2023-08-07T11:14:10;2.50;;;1.33;;
50731;SDS011;36700;50.488;2.544;2023-08-07T11:16:38;1.95;;;0.98;;
50731;SDS011;36700;50.488;2.544;2023-08-07T11:19:04;1.55;;;1.10;;
50731;SDS011;36700;50.488;2.544;2023-08-07T11:21:31;1.63;;;1.08;;
50731;SDS011;36700;50.488;2.544;2023-08-07T11:23:58;2.22;;;1.30;;
50731;SDS011;36700;50.488;2.544;2023-08-07T11:26:24;1.98;;;1.15;;
50731;SDS011;36700;50.488;2.544;2023-08-07T11:28:51;1.60;;;1.10;;
50731;SDS011;36700;50.488;2.544;2023-08-07T11:31:18;3.70;;;1.40;;
50731;SDS011;36700;50.488;2.544;2023-08-07T11:33:44;2.83;;;1.30;;
50731;SDS011;36700;50.488;2.544;2023-08-07T11:36:11;2.30;;;1.30;;
50731;SDS011;36700;50.488;2.544;2023-08-07T11:38:40;2.40;;;1.35;;
50731;SDS011;36700;50.488;2.544;2023-08-07T11:41:14;2.08;;;1.20;;
50731;SDS011;36700;50.488;2.544;2023-08-07T11:43:41;2.95;;;1.40;;
50731;SDS011;36700;50.488;2.544;2023-08-07T11:46:09;2.13;;;1.40;;
50731;SDS011;36700;50.488;2.544;2023-08-07T11:48:38;3.03;;;1.33;;
50731;SDS011;36700;50.488;2.544;2023-08-07T11:51:05;3.30;;;1.20;;
50731;SDS011;36700;50.488;2.544;2023-08-07T11:53:35;3.03;;;1.25;;
50731;SDS011;36700;50.488;2.544;2023-08-07T11:56:08;2.25;;;1.20;;
50731;SDS011;36700;50.488;2.544;2023-08-07T12:01:06;1.75;;;1.10;;
50731;SDS011;36700;50.488;2.544;2023-08-07T12:03:36;1.98;;;1.00;;
50731;SDS011;36700;50.488;2.544;2023-08-07T12:06:07;2.15;;;1.35;;
50731;SDS011;36700;50.488;2.544;2023-08-07T12:08:34;1.70;;;1.20;;
50731;SDS011;36700;50.488;2.544;2023-08-07T12:11:01;2.58;;;1.30;;
50731;SDS011;36700;50.488;2.544;2023-08-07T12:13:29;3.13;;;1.50;;
50731;SDS011;36700;50.488;2.544;2023-08-07T12:15:57;3.50;;;1.58;;
50731;SDS011;36700;50.488;2.544;2023-08-07T12:18:25;2.55;;;1.25;;
50731;SDS011;36700;50.488;2.544;2023-08-07T12:20:53;3.33;;;1.35;;
50731;SDS011;36700;50.488;2.544;2023-08-07T12:23:25;2.15;;;1.30;;
50731;SDS011;36700;50.488;2.544;2023-08-07T12:25:52;2.42;;;1.38;;
50731;SDS011;36700;50.488;2.544;2023-08-07T12:28:18;2.80;;;1.08;;
50731;SDS011;36700;50.488;2.544;2023-08-07T12:30:45;1.67;;;1.10;;
50731;SDS011;36700;50.488;2.544;2023-08-07T12:33:12;2.15;;;1.25;;
50731;SDS011;36700;50.488;2.544;2023-08-07T12:35:39;2.00;;;1.02;;
50731;SDS011;36700;50.488;2.544;2023-08-07T12:38:05;2.20;;;1.40;;
50731;SDS011;36700;50.488;2.544;2023-08-07T12:40:31;2.17;;;1.30;;
50731;SDS011;36700;50.488;2.544;2023-08-07T12:42:58;2.25;;;1.20;;
50731;SDS011;36700;50.488;2.544;2023-08-07T12:45:24;1.60;;;1.17;;
50731;SDS011;36700;50.488;2.544;2023-08-07T12:47:50;1.77;;;1.30;;
50731;SDS011;36700;50.488;2.544;2023-08-07T12:50:16;1.30;;;1.02;;
50731;SDS011;36700;50.488;2.544;2023-08-07T12:52:42;2.63;;;1.20;;
50731;SDS011;36700;50.488;2.544;2023-08-07T12:55:08;2.05;;;1.40;;
50731;SDS011;36700;50.488;2.544;2023-08-07T12:57:35;2.13;;;1.25;;
50731;SDS011;36700;50.488;2.544;2023-08-07T13:00:01;2.25;;;1.10;;
50731;SDS011;36700;50.488;2.544;2023-08-07T13:02:27;2.85;;;1.20;;
50731;SDS011;36700;50.488;2.544;2023-08-07T13:04:53;1.70;;;1.23;;
50731;SDS011;36700;50.488;2.544;2023-08-07T13:07:19;2.67;;;1.30;;
50731;SDS011;36700;50.488;2.544;2023-08-07T13:09:45;2.40;;;1.13;;
50731;SDS011;36700;50.488;2.544;2023-08-07T13:12:11;1.92;;;1.20;;
50731;SDS011;36700;50.488;2.544;2023-08-07T13:14:37;1.23;;;1.00;;
50731;SDS011;36700;50.488;2.544;2023-08-07T13:17:03;2.40;;;1.15;;
50731;SDS011;36700;50.488;2.544;2023-08-07T13:19:29;1.77;;;1.10;;
50731;SDS011;36700;50.488;2.544;2023-08-07T13:21:55;3.03;;;1.30;;
50731;SDS011;36700;50.488;2.544;2023-08-07T13:24:21;2.78;;;1.17;;
50731;SDS011;36700;50.488;2.544;2023-08-07T13:26:47;3.85;;;1.50;;
50731;SDS011;36700;50.488;2.544;2023-08-07T13:29:13;1.63;;;1.10;;
50731;SDS011;36700;50.488;2.544;2023-08-07T13:31:40;3.03;;;1.40;;
50731;SDS011;36700;50.488;2.544;2023-08-07T13:34:12;2.33;;;1.20;;
50731;SDS011;36700;50.488;2.544;2023-08-07T13:36:38;1.58;;;1.10;;
50731;SDS011;36700;50.488;2.544;2023-08-07T13:39:04;1.60;;;1.17;;
50731;SDS011;36700;50.488;2.544;2023-08-07T13:41:31;1.85;;;1.00;;
50731;SDS011;36700;50.488;2.544;2023-08-07T13:43:58;3.10;;;1.20;;
50731;SDS011;36700;50.488;2.544;2023-08-07T13:46:24;3.35;;;1.20;;
50731;SDS011;36700;50.488;2.544;2023-08-07T13:48:51;1.83;;;1.20;;
50731;SDS011;36700;50.488;2.544;2023-08-07T13:51:16;3.70;;;1.35;;
50731;SDS011;36700;50.488;2.544;2023-08-07T13:53:45;2.35;;;1.45;;
50731;SDS011;36700;50.488;2.544;2023-08-07T13:56:11;2.78;;;1.20;;
50731;SDS011;36700;50.488;2.544;2023-08-07T13:58:38;3.28;;;1.42;;
50731;SDS011;36700;50.488;2.544;2023-08-07T14:01:04;3.03;;;1.30;;
50731;SDS011;36700;50.488;2.544;2023-08-07T14:03:31;2.88;;;1.20;;
50731;SDS011;36700;50.488;2.544;2023-08-07T14:05:57;1.60;;;1.15;;
50731;SDS011;36700;50.488;2.544;2023-08-07T14:08:23;2.10;;;1.20;;
50731;SDS011;36700;50.488;2.544;2023-08-07T14:10:49;3.17;;;1.25;;
50731;SDS011;36700;50.488;2.544;2023-08-07T14:13:15;2.10;;;1.20;;
50731;SDS011;36700;50.488;2.544;2023-08-07T14:15:41;2.40;;;1.33;;
50731;SDS011;36700;50.488;2.544;2023-08-07T14:18:08;3.42;;;1.40;;
50731;SDS011;36700;50.488;2.544;2023-08-07T14:20:34;3.05;;;1.20;;
50731;SDS011;36700;50.488;2.544;2023-08-07T14:23:01;1.77;;;1.00;;
50731;SDS011;36700;50.488;2.544;2023-08-07T14:25:27;3.40;;;1.50;;
50731;SDS011;36700;50.488;2.544;2023-08-07T14:27:53;3.22;;;1.20;;
50731;SDS011;36700;50.488;2.544;2023-08-07T14:30:19;2.35;;;1.10;;
50731;SDS011;36700;50.488;2.544;2023-08-07T14:32:46;1.88;;;1.25;;
50731;SDS011;36700;50.488;2.544;2023-08-07T14:35:13;2.75;;;1.30;;
50731;SDS011;36700;50.488;2.544;2023-08-07T14:37:39;3.13;;;1.30;;
50731;SDS011;36700;50.488;2.544;2023-08-07T14:40:06;1.73;;;1.10;;
50731;SDS011;36700;50.488;2.544;2023-08-07T14:42:32;2.60;;;1.30;;
50731;SDS011;36700;50.488;2.544;2023-08-07T14:44:58;3.47;;;1.15;;
50731;SDS011;36700;50.488;2.544;2023-08-07T14:47:25;2.00;;;1.10;;
50731;SDS011;36700;50.488;2.544;2023-08-07T14:49:51;2.33;;;1.10;;
50731;SDS011;36700;50.488;2.544;2023-08-07T14:52:17;3.35;;;1.38;;
50731;SDS011;36700;50.488;2.544;2023-08-07T14:54:43;1.92;;;1.15;;
50731;SDS011;36700;50.488;2.544;2023-08-07T14:57:09;2.42;;;1.20;;
50731;SDS011;36700;50.488;2.544;2023-08-07T14:59:35;1.65;;;0.98;;